Pleasant Valley, Connecticut
Current Conditions -  °F | °C
As of 9:51 PM on Sunday 21 Dec 2014 (Local Time) from KBDL Reporting Station
Overcast Overcast  
Wind Chill: 29°   Ceiling: 1500
Heat Index: 33°   Visibility: 10mi
Dew Point: 30°   Wind: 5mph
Humidity: 89%   Direction: 360°N
Pressure: 30.34"   Gusts: NA
Location:  41.91°N, 72.98°W
Report Text: KBDL 220251Z 36004KT 10SM OVC015 01/M01 A3034 RMK AO2 SLP276 T00061011 51005 $
Loading
Personal Weather Stations






























Interactive Weather Map New forecast layout! Learn more

10-Day Weather Forecast

Advertisements
Track Severe Weather on mobile